createdAt,value
2023-02-17T00:01:22.169Z,3.92
2023-02-17T00:03:51.820Z,3.87
2023-02-17T00:06:21.818Z,4.03
2023-02-17T00:08:51.664Z,3.88
2023-02-17T00:11:20.477Z,3.99
2023-02-17T00:13:48.638Z,3.94
2023-02-17T00:16:20.683Z,4.39
2023-02-17T00:18:53.265Z,3.95
2023-02-17T00:21:23.823Z,4.54
2023-02-17T00:23:54.028Z,4.84
2023-02-17T00:26:22.789Z,4.75
2023-02-17T00:28:51.807Z,4.23
2023-02-17T00:31:22.047Z,4.20
2023-02-17T00:33:50.558Z,4.14
2023-02-17T00:36:20.727Z,4.98
2023-02-17T00:38:50.174Z,4.38
2023-02-17T00:41:20.570Z,5.16
2023-02-17T00:43:49.750Z,5.04
2023-02-17T00:46:19.435Z,5.63
2023-02-17T00:48:47.966Z,5.69
2023-02-17T00:51:16.679Z,6.14
2023-02-17T00:53:45.027Z,5.60
2023-02-17T00:56:13.725Z,5.54
2023-02-17T00:58:43.867Z,5.23
2023-02-17T01:01:13.062Z,4.97
2023-02-17T01:03:42.403Z,5.14
2023-02-17T01:06:22.740Z,5.00
2023-02-17T01:08:50.838Z,5.11
2023-02-17T01:11:20.038Z,5.12
2023-02-17T01:13:49.522Z,4.72
2023-02-17T01:16:18.973Z,5.49
2023-02-17T01:18:47.080Z,4.53
2023-02-17T01:21:19.392Z,5.42
2023-02-17T01:23:49.905Z,5.16
2023-02-17T01:26:21.279Z,4.59
2023-02-17T01:28:51.811Z,4.41
2023-02-17T01:31:22.309Z,4.90
2023-02-17T01:33:51.110Z,4.48
2023-02-17T01:36:20.915Z,4.62
2023-02-17T01:38:49.070Z,4.54
2023-02-17T01:41:22.277Z,3.97
2023-02-17T01:44:10.581Z,4.25
2023-02-17T01:46:40.337Z,4.71
2023-02-17T01:49:18.908Z,4.67
2023-02-17T01:51:50.969Z,4.23
2023-02-17T01:54:23.532Z,4.14
2023-02-17T01:56:52.659Z,4.26
2023-02-17T01:59:23.435Z,4.43
2023-02-17T02:01:55.955Z,3.91
2023-02-17T02:04:27.043Z,4.13
2023-02-17T02:06:55.580Z,4.19
2023-02-17T02:09:29.285Z,4.83
2023-02-17T02:12:00.366Z,4.25
2023-02-17T02:14:34.838Z,4.33
2023-02-17T02:17:13.831Z,3.87
2023-02-17T02:20:14.702Z,4.44
2023-02-17T02:23:12.648Z,4.62
2023-02-17T02:26:21.484Z,4.09
2023-02-17T02:29:12.629Z,4.42
2023-02-17T02:31:56.948Z,4.52
2023-02-17T02:34:32.613Z,4.46
2023-02-17T02:37:07.812Z,4.54
2023-02-17T02:39:40.800Z,4.23
2023-02-17T02:42:14.185Z,4.93
2023-02-17T02:44:42.649Z,4.35
2023-02-17T02:47:43.849Z,4.40
2023-02-17T02:50:18.326Z,4.32
2023-02-17T02:53:00.209Z,3.90
2023-02-17T02:55:42.219Z,4.36
2023-02-17T02:58:18.613Z,4.13
2023-02-17T03:00:55.428Z,4.55
2023-02-17T03:03:30.612Z,4.67
2023-02-17T03:06:07.728Z,4.69
2023-02-17T03:08:40.722Z,4.37
2023-02-17T03:11:08.961Z,4.49
2023-02-17T03:13:39.691Z,4.23
2023-02-17T03:16:12.209Z,4.56
2023-02-17T03:18:40.411Z,5.15
2023-02-17T03:21:15.684Z,4.87
2023-02-17T03:23:44.392Z,5.85
2023-02-17T03:26:12.489Z,5.81
2023-02-17T03:28:40.728Z,5.32
2023-02-17T03:31:08.986Z,5.30
2023-02-17T03:33:37.066Z,5.57
2023-02-17T03:36:05.838Z,6.02
2023-02-17T03:38:35.573Z,5.83
2023-02-17T03:41:03.714Z,6.45
2023-02-17T03:43:31.726Z,6.47
2023-02-17T03:45:59.846Z,5.99
2023-02-17T03:48:28.058Z,6.40
2023-02-17T03:50:56.133Z,5.70
2023-02-17T03:53:24.162Z,5.54
2023-02-17T03:55:53.552Z,5.59
2023-02-17T03:58:21.666Z,5.54
2023-02-17T04:00:49.672Z,5.51
2023-02-17T04:03:17.713Z,5.55
2023-02-17T04:05:46.446Z,5.42
2023-02-17T04:08:14.579Z,5.63
2023-02-17T04:10:42.631Z,5.76
2023-02-17T04:13:12.067Z,5.66
2023-02-17T04:15:40.150Z,5.90
2023-02-17T04:18:08.207Z,5.61
2023-02-17T04:20:36.246Z,5.22
2023-02-17T04:23:04.288Z,5.09
2023-02-17T04:25:34.993Z,5.12
2023-02-17T04:28:03.272Z,4.89
2023-02-17T04:30:32.900Z,5.33
2023-02-17T04:33:01.562Z,4.91
2023-02-17T04:35:29.893Z,5.20
2023-02-17T04:37:58.039Z,5.63
2023-02-17T04:40:26.098Z,5.55
2023-02-17T04:42:54.169Z,5.04
2023-02-17T04:45:22.357Z,5.29
2023-02-17T04:47:51.777Z,5.39
2023-02-17T04:50:21.026Z,5.03
2023-02-17T04:52:49.406Z,4.75
2023-02-17T04:55:17.469Z,5.03
2023-02-17T04:57:45.494Z,4.87
2023-02-17T05:00:14.419Z,5.17
2023-02-17T05:02:42.443Z,5.40
2023-02-17T05:05:15.295Z,5.65
2023-02-17T05:07:43.939Z,5.79
2023-02-17T05:10:12.977Z,6.38
2023-02-17T05:12:41.116Z,5.87
2023-02-17T05:15:10.068Z,6.14
2023-02-17T05:17:38.458Z,6.15
2023-02-17T05:20:07.933Z,6.24
2023-02-17T05:22:37.651Z,5.92
2023-02-17T05:25:06.430Z,5.40
2023-02-17T05:27:34.873Z,5.70
2023-02-17T05:30:02.979Z,6.14
2023-02-17T05:32:31.241Z,5.88
2023-02-17T05:34:59.290Z,6.01
2023-02-17T05:37:28.374Z,5.62
2023-02-17T05:39:57.841Z,6.04
2023-02-17T05:42:28.898Z,5.97
2023-02-17T05:44:57.294Z,6.01
2023-02-17T05:47:27.622Z,5.84
2023-02-17T05:49:55.856Z,6.25
2023-02-17T05:52:23.919Z,6.18
2023-02-17T05:54:51.945Z,5.91
2023-02-17T05:57:21.604Z,5.82
2023-02-17T05:59:49.641Z,6.60
2023-02-17T06:02:17.780Z,6.66
2023-02-17T06:04:45.945Z,6.68
2023-02-17T06:07:14.055Z,6.96
2023-02-17T06:09:42.148Z,6.35
2023-02-17T06:12:10.186Z,6.47
2023-02-17T06:14:39.585Z,7.27
2023-02-17T06:17:07.751Z,7.34
2023-02-17T06:19:35.762Z,7.53
2023-02-17T06:22:03.806Z,7.29
2023-02-17T06:24:31.978Z,7.63
2023-02-17T06:27:00.035Z,7.14
2023-02-17T06:29:28.829Z,7.54
2023-02-17T06:31:58.351Z,7.45
2023-02-17T06:34:26.454Z,7.47
2023-02-17T06:36:54.597Z,7.10
2023-02-17T06:39:22.732Z,7.49
2023-02-17T06:41:51.361Z,7.55
2023-02-17T06:44:19.499Z,7.30
2023-02-17T06:46:47.572Z,7.95
2023-02-17T06:49:17.089Z,7.96
2023-02-17T06:51:45.176Z,7.87
2023-02-17T06:54:13.227Z,7.94
2023-02-17T06:56:41.326Z,7.73
2023-02-17T06:59:09.421Z,7.26
2023-02-17T07:01:37.647Z,7.55
2023-02-17T07:04:05.871Z,7.76
2023-02-17T07:06:37.686Z,7.71
2023-02-17T07:09:06.559Z,7.63
2023-02-17T07:11:34.802Z,7.90
2023-02-17T07:14:02.901Z,7.68
2023-02-17T07:16:31.104Z,8.31
2023-02-17T07:18:59.151Z,8.18
2023-02-17T07:21:27.296Z,7.69
2023-02-17T07:23:56.706Z,8.09
2023-02-17T07:26:24.757Z,7.92
2023-02-17T07:28:52.817Z,7.14
2023-02-17T07:31:21.006Z,8.04
2023-02-17T07:33:50.193Z,8.62
2023-02-17T07:36:18.780Z,8.27
2023-02-17T07:38:46.807Z,8.27
2023-02-17T07:41:18.115Z,8.03
2023-02-17T07:43:47.188Z,8.43
2023-02-17T07:46:17.580Z,8.46
2023-02-17T07:48:46.530Z,8.71
2023-02-17T07:51:17.071Z,9.26
2023-02-17T07:53:45.159Z,9.47
2023-02-17T07:56:15.434Z,9.47
2023-02-17T07:58:46.480Z,9.25
2023-02-17T08:01:17.490Z,9.67
2023-02-17T08:03:46.544Z,10.05
2023-02-17T08:06:16.601Z,10.11
2023-02-17T08:09:01.754Z,10.32
2023-02-17T08:11:49.590Z,10.49
2023-02-17T08:14:21.504Z,10.85
2023-02-17T08:16:49.687Z,10.53
2023-02-17T08:19:18.031Z,10.16
2023-02-17T08:21:46.473Z,9.73
2023-02-17T08:24:15.478Z,10.27
2023-02-17T08:26:43.580Z,10.54
2023-02-17T08:29:11.822Z,10.20
2023-02-17T08:31:41.382Z,10.34
2023-02-17T08:34:11.977Z,10.18
2023-02-17T08:36:40.538Z,10.80
2023-02-17T08:39:13.024Z,10.14
2023-02-17T08:41:42.352Z,10.51
2023-02-17T08:44:12.742Z,10.05
2023-02-17T08:46:43.301Z,10.96
2023-02-17T08:49:11.853Z,10.92
2023-02-17T08:51:40.104Z,10.96
2023-02-17T08:54:10.392Z,10.83
2023-02-17T08:56:40.040Z,10.28
2023-02-17T08:59:10.302Z,10.57
2023-02-17T09:01:39.047Z,10.68
2023-02-17T09:04:10.335Z,10.53
2023-02-17T09:06:41.049Z,10.41
2023-02-17T09:09:10.902Z,10.51
2023-02-17T09:11:39.248Z,11.03
2023-02-17T09:14:07.914Z,10.89
2023-02-17T09:16:36.393Z,11.19
2023-02-17T09:19:05.442Z,11.25
2023-02-17T09:21:35.051Z,11.48
2023-02-17T09:24:03.363Z,10.85
2023-02-17T09:26:31.467Z,10.90
2023-02-17T09:28:59.513Z,11.27
2023-02-17T09:31:31.308Z,11.11
2023-02-17T09:33:59.867Z,10.45
2023-02-17T09:36:30.136Z,11.21
2023-02-17T09:38:59.835Z,10.52
2023-02-17T09:41:35.819Z,11.48
2023-02-17T09:44:04.014Z,11.68
2023-02-17T09:46:36.152Z,11.61
2023-02-17T09:49:12.510Z,11.42
2023-02-17T09:51:44.946Z,11.54
2023-02-17T09:54:19.351Z,11.32
2023-02-17T09:56:51.924Z,11.07
2023-02-17T09:59:24.849Z,11.11
2023-02-17T10:01:55.176Z,11.20
2023-02-17T10:04:27.849Z,11.52
2023-02-17T10:07:02.865Z,11.24
2023-02-17T10:09:36.716Z,10.77
2023-02-17T10:12:09.739Z,10.87
2023-02-17T10:14:44.570Z,11.33
2023-02-17T10:17:22.030Z,11.08
2023-02-17T10:19:55.467Z,11.39
2023-02-17T10:22:25.661Z,11.11
2023-02-17T10:24:55.185Z,11.01
2023-02-17T10:27:34.890Z,10.88
2023-02-17T10:30:23.188Z,11.21
2023-02-17T10:33:00.512Z,11.56
2023-02-17T10:35:46.480Z,11.01
2023-02-17T10:38:18.806Z,11.29
2023-02-17T10:40:52.450Z,10.63
2023-02-17T10:43:27.094Z,10.91
2023-02-17T10:45:55.935Z,10.66
2023-02-17T10:48:35.865Z,9.67
2023-02-17T10:51:04.596Z,9.80
2023-02-17T10:53:35.530Z,10.37
2023-02-17T10:56:10.877Z,10.95
2023-02-17T10:58:48.172Z,9.65
2023-02-17T11:01:16.181Z,10.69
2023-02-17T11:03:44.336Z,10.10
2023-02-17T11:06:18.838Z,10.06
2023-02-17T11:08:50.813Z,9.69
2023-02-17T11:11:22.540Z,9.41
2023-02-17T11:14:10.757Z,9.88
2023-02-17T11:16:40.946Z,9.94
2023-02-17T11:19:22.770Z,9.51
2023-02-17T11:21:52.944Z,9.53
2023-02-17T11:24:21.822Z,10.13
2023-02-17T11:26:59.874Z,9.88
2023-02-17T11:29:28.647Z,10.50
2023-02-17T11:31:59.566Z,11.20
2023-02-17T11:34:30.361Z,10.81
2023-02-17T11:37:01.795Z,9.76
2023-02-17T11:39:30.550Z,10.52
2023-02-17T11:41:59.970Z,10.10
2023-02-17T11:44:29.522Z,9.48
2023-02-17T11:47:09.584Z,9.58
2023-02-17T11:50:00.766Z,10.07
2023-02-17T11:52:44.888Z,10.89
2023-02-17T11:55:21.958Z,10.48
2023-02-17T11:58:08.802Z,10.01
2023-02-17T12:00:46.322Z,10.38
2023-02-17T12:03:29.821Z,10.51
2023-02-17T12:06:09.595Z,10.29
2023-02-17T12:08:53.233Z,10.49
2023-02-17T12:11:27.890Z,9.47
2023-02-17T12:14:10.872Z,9.77
2023-02-17T12:16:49.236Z,10.12
2023-02-17T12:19:41.417Z,9.33
2023-02-17T12:22:18.868Z,9.25
2023-02-17T12:24:59.375Z,9.68
2023-02-17T12:27:45.057Z,9.66
2023-02-17T12:30:27.779Z,9.44
2023-02-17T12:33:13.509Z,10.01
2023-02-17T12:35:51.148Z,9.37
2023-02-17T12:38:23.245Z,10.17
2023-02-17T12:40:56.864Z,9.56
2023-02-17T12:43:28.694Z,9.20
2023-02-17T12:46:01.251Z,9.49
2023-02-17T12:48:36.946Z,9.43
2023-02-17T12:51:10.589Z,9.64
2023-02-17T12:53:50.271Z,9.20
2023-02-17T12:56:50.652Z,9.79
2023-02-17T12:59:21.886Z,9.06
2023-02-17T13:02:00.655Z,9.18
2023-02-17T13:04:31.102Z,8.88
2023-02-17T13:07:21.327Z,9.49
2023-02-17T13:09:51.335Z,9.96
2023-02-17T13:12:34.231Z,9.23
2023-02-17T13:15:05.137Z,9.46
2023-02-17T13:17:38.340Z,9.47
2023-02-17T13:20:29.062Z,9.71
2023-02-17T13:23:13.659Z,9.84
2023-02-17T13:25:42.262Z,10.18
2023-02-17T13:28:37.165Z,9.82
2023-02-17T13:31:26.971Z,10.03
2023-02-17T13:33:58.411Z,9.96
2023-02-17T13:36:37.017Z,9.76
2023-02-17T13:39:08.570Z,9.88
2023-02-17T13:41:47.858Z,9.72
2023-02-17T13:44:28.457Z,9.85
2023-02-17T13:46:59.975Z,10.33
2023-02-17T13:49:34.038Z,10.23
2023-02-17T13:52:10.369Z,9.51
2023-02-17T13:54:38.591Z,10.54
2023-02-17T13:57:06.590Z,9.97
2023-02-17T13:59:37.238Z,10.43
2023-02-17T14:02:05.466Z,10.58
2023-02-17T14:04:35.053Z,10.06
2023-02-17T14:07:06.152Z,10.37
2023-02-17T14:09:36.163Z,9.87
2023-02-17T14:12:07.850Z,10.71
2023-02-17T14:14:38.500Z,10.43
2023-02-17T14:17:09.233Z,11.15
2023-02-17T14:19:49.389Z,10.92
2023-02-17T14:22:28.760Z,10.20
2023-02-17T14:25:02.905Z,10.33
2023-02-17T14:27:42.686Z,10.56
2023-02-17T14:30:15.402Z,10.59
2023-02-17T14:32:43.685Z,10.30
2023-02-17T14:35:24.806Z,10.77
2023-02-17T14:37:52.927Z,11.63
2023-02-17T14:40:24.387Z,10.49
2023-02-17T14:42:52.736Z,10.49
2023-02-17T14:45:20.858Z,10.67
2023-02-17T14:47:48.996Z,10.07
2023-02-17T14:50:17.638Z,10.24
2023-02-17T14:52:49.127Z,10.52
2023-02-17T14:55:26.038Z,10.84
2023-02-17T14:57:54.741Z,10.52
2023-02-17T15:00:23.155Z,10.49
2023-02-17T15:02:51.542Z,10.62
2023-02-17T15:05:20.250Z,10.79
2023-02-17T15:07:49.823Z,11.25
2023-02-17T15:10:21.891Z,10.92
2023-02-17T15:12:49.973Z,11.48
2023-02-17T15:15:19.322Z,11.42
2023-02-17T15:17:47.942Z,10.91
2023-02-17T15:20:17.896Z,10.63
2023-02-17T15:22:46.110Z,10.22
2023-02-17T15:25:19.242Z,9.95
2023-02-17T15:27:48.307Z,9.66
2023-02-17T15:30:17.769Z,9.73
2023-02-17T15:32:46.752Z,9.94
2023-02-17T15:35:20.725Z,9.61
2023-02-17T15:37:49.316Z,9.39
2023-02-17T15:40:20.417Z,9.84
2023-02-17T15:42:54.657Z,9.68
2023-02-17T15:45:23.566Z,9.88
2023-02-17T15:47:53.803Z,9.09
2023-02-17T15:50:23.888Z,9.55
2023-02-17T15:52:52.423Z,9.32
2023-02-17T15:55:23.658Z,9.53
2023-02-17T15:57:55.036Z,9.21
2023-02-17T16:00:25.139Z,9.07
2023-02-17T16:02:53.613Z,9.00
2023-02-17T16:05:24.189Z,9.22
2023-02-17T16:07:52.642Z,8.96
2023-02-17T16:10:24.329Z,8.90
2023-02-17T16:12:53.300Z,9.28
2023-02-17T16:15:24.086Z,9.26
2023-02-17T16:17:52.523Z,9.20
2023-02-17T16:20:22.263Z,9.37
2023-02-17T16:22:50.320Z,9.58
2023-02-17T16:25:19.819Z,9.26
2023-02-17T16:27:51.678Z,9.37
2023-02-17T16:30:22.519Z,9.45
2023-02-17T16:32:52.502Z,9.29
2023-02-17T16:35:22.849Z,9.47
2023-02-17T16:37:55.347Z,9.25
2023-02-17T16:40:26.269Z,9.81
2023-02-17T16:42:56.252Z,9.72
2023-02-17T16:45:26.898Z,9.98
2023-02-17T16:47:57.399Z,9.95
2023-02-17T16:50:28.201Z,9.66
2023-02-17T16:52:58.826Z,9.26
2023-02-17T16:55:29.595Z,9.44
2023-02-17T16:57:59.759Z,9.69
2023-02-17T17:00:31.460Z,9.30
2023-02-17T17:03:00.260Z,9.43
2023-02-17T17:05:31.126Z,9.62
2023-02-17T17:07:59.176Z,9.52
2023-02-17T17:10:30.720Z,9.84
2023-02-17T17:13:00.835Z,9.48
2023-02-17T17:15:29.495Z,9.88
2023-02-17T17:17:59.869Z,9.61
2023-02-17T17:20:32.017Z,9.51
2023-02-17T17:23:00.864Z,9.78
2023-02-17T17:25:29.979Z,9.09
2023-02-17T17:27:58.504Z,9.40
2023-02-17T17:30:31.469Z,8.97
2023-02-17T17:33:00.154Z,9.25
2023-02-17T17:35:29.276Z,9.33
2023-02-17T17:37:58.790Z,9.55
2023-02-17T17:40:29.112Z,9.81
2023-02-17T17:42:57.202Z,9.82
2023-02-17T17:45:27.256Z,10.07
2023-02-17T17:47:55.630Z,9.68
2023-02-17T17:50:25.377Z,9.67
2023-02-17T17:52:54.001Z,9.51
2023-02-17T17:55:22.160Z,10.05
2023-02-17T17:57:50.204Z,10.10
2023-02-17T18:00:19.795Z,10.03
2023-02-17T18:02:49.239Z,10.30
2023-02-17T18:05:17.410Z,9.64
2023-02-17T18:07:47.985Z,9.73
2023-02-17T18:10:17.743Z,9.78
2023-02-17T18:12:47.733Z,9.44
2023-02-17T18:15:16.918Z,9.71
2023-02-17T18:17:46.658Z,9.91
2023-02-17T18:20:16.394Z,10.14
2023-02-17T18:22:44.871Z,9.71
2023-02-17T18:25:13.328Z,9.83
2023-02-17T18:27:42.512Z,10.17
2023-02-17T18:30:12.115Z,9.57
2023-02-17T18:32:40.289Z,9.96
2023-02-17T18:35:09.056Z,9.83
2023-02-17T18:37:40.317Z,10.08
2023-02-17T18:40:12.526Z,10.01
2023-02-17T18:42:40.754Z,10.06
2023-02-17T18:45:10.377Z,9.79
2023-02-17T18:47:38.542Z,9.98
2023-02-17T18:50:08.500Z,9.84
2023-02-17T18:52:39.570Z,10.16
2023-02-17T18:55:08.435Z,9.97
2023-02-17T18:57:36.971Z,10.36
2023-02-17T19:00:05.988Z,10.26
2023-02-17T19:02:36.779Z,10.02
2023-02-17T19:05:05.676Z,10.03
2023-02-17T19:07:34.543Z,10.20
2023-02-17T19:10:04.552Z,10.30
2023-02-17T19:12:34.230Z,10.27
2023-02-17T19:15:02.612Z,10.37
2023-02-17T19:17:30.756Z,10.38
2023-02-17T19:19:58.805Z,10.82
2023-02-17T19:22:26.916Z,10.53
2023-02-17T19:24:55.963Z,10.78
2023-02-17T19:27:25.421Z,10.49
2023-02-17T19:29:53.522Z,11.00
2023-02-17T19:32:21.920Z,10.39
2023-02-17T19:34:50.297Z,10.62
2023-02-17T19:37:18.359Z,10.74
2023-02-17T19:39:46.673Z,10.86
2023-02-17T19:42:14.733Z,10.71
2023-02-17T19:44:44.218Z,10.95
2023-02-17T19:47:12.300Z,10.51
2023-02-17T19:49:40.431Z,10.60
2023-02-17T19:52:09.129Z,10.37
2023-02-17T19:54:37.425Z,11.05
2023-02-17T19:57:05.665Z,10.40
2023-02-17T19:59:34.626Z,11.19
2023-02-17T20:02:04.159Z,10.48
2023-02-17T20:04:32.218Z,10.35
2023-02-17T20:07:00.245Z,10.56
2023-02-17T20:09:28.303Z,10.47
2023-02-17T20:11:56.500Z,10.37
2023-02-17T20:14:24.805Z,10.27
2023-02-17T20:16:55.687Z,10.23
2023-02-17T20:19:25.155Z,10.31
2023-02-17T20:21:53.248Z,9.97
2023-02-17T20:24:21.421Z,9.84
2023-02-17T20:26:53.692Z,9.79
2023-02-17T20:29:21.938Z,10.19
2023-02-17T20:31:50.283Z,10.45
2023-02-17T20:34:29.804Z,9.96
2023-02-17T20:36:58.286Z,10.31
2023-02-17T20:39:26.948Z,10.29
2023-02-17T20:41:55.576Z,10.08
2023-02-17T20:44:27.709Z,10.52
2023-02-17T20:46:57.069Z,10.31
2023-02-17T20:49:25.658Z,10.32
2023-02-17T20:51:55.337Z,10.23
2023-02-17T20:54:25.520Z,10.42
2023-02-17T20:56:53.917Z,10.59
2023-02-17T20:59:22.094Z,10.38
2023-02-17T21:01:50.665Z,10.47
2023-02-17T21:04:18.812Z,10.88
2023-02-17T21:06:47.537Z,10.30
2023-02-17T21:09:19.709Z,10.40
2023-02-17T21:11:48.157Z,10.52
2023-02-17T21:14:16.263Z,10.52
2023-02-17T21:16:44.979Z,10.82
2023-02-17T21:19:13.241Z,11.00
2023-02-17T21:21:41.937Z,11.16
2023-02-17T21:24:10.008Z,10.70
2023-02-17T21:26:40.099Z,10.78
2023-02-17T21:29:08.251Z,11.19
2023-02-17T21:31:37.130Z,11.02
2023-02-17T21:34:06.019Z,11.01
2023-02-17T21:36:34.171Z,10.69
2023-02-17T21:39:03.825Z,10.85
2023-02-17T21:41:32.678Z,11.11
2023-02-17T21:44:19.938Z,11.07
2023-02-17T21:46:48.056Z,10.82
2023-02-17T21:49:16.143Z,10.86
2023-02-17T21:51:44.951Z,11.43
2023-02-17T21:54:13.760Z,11.17
2023-02-17T21:56:41.862Z,10.98
2023-02-17T21:59:11.356Z,10.74
2023-02-17T22:01:39.395Z,11.10
2023-02-17T22:04:08.201Z,11.35
2023-02-17T22:06:38.894Z,11.07
2023-02-17T22:09:08.772Z,11.90
2023-02-17T22:11:40.013Z,11.19
2023-02-17T22:14:11.112Z,11.02
2023-02-17T22:16:41.356Z,11.47
2023-02-17T22:19:13.776Z,11.45
2023-02-17T22:21:43.527Z,11.25
2023-02-17T22:24:12.017Z,11.03
2023-02-17T22:26:40.068Z,11.48
2023-02-17T22:29:08.227Z,11.74
2023-02-17T22:31:36.681Z,11.21
2023-02-17T22:34:10.106Z,11.07
2023-02-17T22:36:38.790Z,11.52
2023-02-17T22:39:09.013Z,11.25
2023-02-17T22:41:38.874Z,10.97
2023-02-17T22:44:07.236Z,10.39
2023-02-17T22:46:35.589Z,11.13
2023-02-17T22:49:05.095Z,10.88
2023-02-17T22:51:36.455Z,10.90
2023-02-17T22:54:05.804Z,10.79
2023-02-17T22:56:34.720Z,11.00
2023-02-17T22:59:04.409Z,10.89
2023-02-17T23:01:33.961Z,10.97
2023-02-17T23:04:02.339Z,11.45
2023-02-17T23:06:33.789Z,11.55
2023-02-17T23:09:02.651Z,11.35
2023-02-17T23:11:52.463Z,11.57
2023-02-17T23:14:23.861Z,11.36
2023-02-17T23:16:53.083Z,11.42
2023-02-17T23:19:22.871Z,11.63
2023-02-17T23:21:54.117Z,11.57
2023-02-17T23:24:23.630Z,11.55
2023-02-17T23:26:52.513Z,11.37
2023-02-17T23:29:20.969Z,11.76
2023-02-17T23:31:49.165Z,11.68
2023-02-17T23:34:18.025Z,11.61
2023-02-17T23:36:47.122Z,11.53
2023-02-17T23:39:17.396Z,11.28
2023-02-17T23:41:45.978Z,11.63
2023-02-17T23:44:15.290Z,11.71
2023-02-17T23:46:44.886Z,11.59
2023-02-17T23:49:15.471Z,11.50
2023-02-17T23:51:44.524Z,12.04
2023-02-17T23:54:12.581Z,11.20
2023-02-17T23:56:42.061Z,11.55
2023-02-17T23:59:11.736Z,11.31
